sensor_id;sensor_type;location;lat;lon;timestamp;P1;durP1;ratioP1;P2;durP2;ratioP2
76589;SDS011;65471;55.908;37.880;2024-01-30T00:00:31;11.45;;;7.70;;
76589;SDS011;65471;55.908;37.880;2024-01-30T00:02:58;13.10;;;8.23;;
76589;SDS011;65471;55.908;37.880;2024-01-30T00:05:25;11.27;;;7.57;;
76589;SDS011;65471;55.908;37.880;2024-01-30T00:07:52;10.45;;;6.32;;
76589;SDS011;65471;55.908;37.880;2024-01-30T00:10:19;8.63;;;7.15;;
76589;SDS011;65471;55.908;37.880;2024-01-30T00:12:47;12.02;;;8.43;;
76589;SDS011;65471;55.908;37.880;2024-01-30T00:15:14;12.07;;;8.25;;
76589;SDS011;65471;55.908;37.880;2024-01-30T00:17:41;9.00;;;7.18;;
76589;SDS011;65471;55.908;37.880;2024-01-30T00:20:08;11.90;;;8.35;;
76589;SDS011;65471;55.908;37.880;2024-01-30T00:22:36;8.03;;;7.33;;
76589;SDS011;65471;55.908;37.880;2024-01-30T00:25:03;9.88;;;6.90;;
76589;SDS011;65471;55.908;37.880;2024-01-30T00:27:31;8.30;;;7.43;;
76589;SDS011;65471;55.908;37.880;2024-01-30T00:29:58;12.82;;;8.18;;
76589;SDS011;65471;55.908;37.880;2024-01-30T00:32:25;11.82;;;7.18;;
76589;SDS011;65471;55.908;37.880;2024-01-30T00:34:52;8.30;;;7.15;;
76589;SDS011;65471;55.908;37.880;2024-01-30T00:37:19;9.07;;;7.60;;
76589;SDS011;65471;55.908;37.880;2024-01-30T00:39:46;14.05;;;7.07;;
76589;SDS011;65471;55.908;37.880;2024-01-30T00:42:13;7.40;;;6.70;;
76589;SDS011;65471;55.908;37.880;2024-01-30T00:44:40;8.63;;;6.90;;
76589;SDS011;65471;55.908;37.880;2024-01-30T00:47:07;9.25;;;6.72;;
76589;SDS011;65471;55.908;37.880;2024-01-30T00:49:34;8.88;;;7.03;;
76589;SDS011;65471;55.908;37.880;2024-01-30T00:52:02;8.55;;;7.50;;
76589;SDS011;65471;55.908;37.880;2024-01-30T00:54:29;9.77;;;7.07;;
76589;SDS011;65471;55.908;37.880;2024-01-30T00:56:56;9.60;;;7.35;;
76589;SDS011;65471;55.908;37.880;2024-01-30T00:59:23;9.13;;;7.05;;
76589;SDS011;65471;55.908;37.880;2024-01-30T01:01:50;9.15;;;7.53;;
76589;SDS011;65471;55.908;37.880;2024-01-30T01:04:18;6.80;;;5.85;;
76589;SDS011;65471;55.908;37.880;2024-01-30T01:06:45;7.95;;;7.15;;
76589;SDS011;65471;55.908;37.880;2024-01-30T01:09:12;8.20;;;6.57;;
76589;SDS011;65471;55.908;37.880;2024-01-30T01:11:39;14.95;;;7.43;;
76589;SDS011;65471;55.908;37.880;2024-01-30T01:14:06;8.43;;;7.07;;
76589;SDS011;65471;55.908;37.880;2024-01-30T01:16:33;8.13;;;7.32;;
76589;SDS011;65471;55.908;37.880;2024-01-30T01:19:00;8.18;;;7.38;;
76589;SDS011;65471;55.908;37.880;2024-01-30T01:21:28;8.82;;;7.47;;
76589;SDS011;65471;55.908;37.880;2024-01-30T01:23:55;7.75;;;6.53;;
76589;SDS011;65471;55.908;37.880;2024-01-30T01:26:22;7.45;;;6.75;;
76589;SDS011;65471;55.908;37.880;2024-01-30T01:28:50;7.85;;;7.10;;
76589;SDS011;65471;55.908;37.880;2024-01-30T01:31:17;10.65;;;7.13;;
76589;SDS011;65471;55.908;37.880;2024-01-30T01:33:45;10.25;;;7.22;;
76589;SDS011;65471;55.908;37.880;2024-01-30T01:36:13;5.97;;;5.38;;
76589;SDS011;65471;55.908;37.880;2024-01-30T01:38:40;6.80;;;6.13;;
76589;SDS011;65471;55.908;37.880;2024-01-30T01:41:07;8.82;;;6.55;;
76589;SDS011;65471;55.908;37.880;2024-01-30T01:43:34;11.52;;;5.85;;
76589;SDS011;65471;55.908;37.880;2024-01-30T01:46:01;10.07;;;5.18;;
76589;SDS011;65471;55.908;37.880;2024-01-30T01:48:29;8.50;;;6.15;;
76589;SDS011;65471;55.908;37.880;2024-01-30T01:50:56;6.55;;;5.95;;
76589;SDS011;65471;55.908;37.880;2024-01-30T01:53:24;12.83;;;7.67;;
76589;SDS011;65471;55.908;37.880;2024-01-30T01:55:52;6.85;;;6.13;;
76589;SDS011;65471;55.908;37.880;2024-01-30T01:58:20;7.17;;;6.50;;
76589;SDS011;65471;55.908;37.880;2024-01-30T02:03:17;7.78;;;5.78;;
76589;SDS011;65471;55.908;37.880;2024-01-30T02:05:48;9.45;;;6.97;;
76589;SDS011;65471;55.908;37.880;2024-01-30T02:08:17;8.13;;;7.38;;
76589;SDS011;65471;55.908;37.880;2024-01-30T02:10:44;16.88;;;6.40;;
76589;SDS011;65471;55.908;37.880;2024-01-30T02:13:12;7.30;;;6.60;;
76589;SDS011;65471;55.908;37.880;2024-01-30T02:15:39;7.18;;;6.43;;
76589;SDS011;65471;55.908;37.880;2024-01-30T02:18:07;10.90;;;7.30;;
76589;SDS011;65471;55.908;37.880;2024-01-30T02:20:56;6.00;;;5.38;;
76589;SDS011;65471;55.908;37.880;2024-01-30T02:23:25;8.63;;;7.00;;
76589;SDS011;65471;55.908;37.880;2024-01-30T02:25:52;13.05;;;6.50;;
76589;SDS011;65471;55.908;37.880;2024-01-30T02:28:20;7.35;;;6.57;;
76589;SDS011;65471;55.908;37.880;2024-01-30T02:30:47;7.45;;;6.88;;
76589;SDS011;65471;55.908;37.880;2024-01-30T02:33:14;7.75;;;7.03;;
76589;SDS011;65471;55.908;37.880;2024-01-30T02:35:41;9.52;;;6.07;;
76589;SDS011;65471;55.908;37.880;2024-01-30T02:38:08;5.88;;;5.45;;
76589;SDS011;65471;55.908;37.880;2024-01-30T02:40:35;8.63;;;7.03;;
76589;SDS011;65471;55.908;37.880;2024-01-30T02:43:02;6.30;;;5.90;;
76589;SDS011;65471;55.908;37.880;2024-01-30T02:45:30;13.35;;;7.28;;
76589;SDS011;65471;55.908;37.880;2024-01-30T02:47:57;13.52;;;7.25;;
76589;SDS011;65471;55.908;37.880;2024-01-30T02:50:24;10.48;;;8.00;;
76589;SDS011;65471;55.908;37.880;2024-01-30T02:52:51;8.70;;;7.80;;
76589;SDS011;65471;55.908;37.880;2024-01-30T02:55:18;11.73;;;7.50;;
76589;SDS011;65471;55.908;37.880;2024-01-30T02:57:45;12.13;;;8.00;;
76589;SDS011;65471;55.908;37.880;2024-01-30T03:00:12;8.60;;;6.47;;
76589;SDS011;65471;55.908;37.880;2024-01-30T03:02:40;9.57;;;7.30;;
76589;SDS011;65471;55.908;37.880;2024-01-30T03:05:08;7.95;;;7.22;;
76589;SDS011;65471;55.908;37.880;2024-01-30T03:07:35;9.50;;;7.47;;
76589;SDS011;65471;55.908;37.880;2024-01-30T03:10:03;9.27;;;7.07;;
76589;SDS011;65471;55.908;37.880;2024-01-30T03:12:32;8.85;;;7.85;;
76589;SDS011;65471;55.908;37.880;2024-01-30T03:14:59;12.05;;;7.53;;
76589;SDS011;65471;55.908;37.880;2024-01-30T03:17:26;8.82;;;7.40;;
76589;SDS011;65471;55.908;37.880;2024-01-30T03:19:53;7.38;;;6.68;;
76589;SDS011;65471;55.908;37.880;2024-01-30T03:22:20;10.82;;;7.13;;
76589;SDS011;65471;55.908;37.880;2024-01-30T03:24:47;6.75;;;5.85;;
76589;SDS011;65471;55.908;37.880;2024-01-30T03:27:15;7.72;;;7.00;;
76589;SDS011;65471;55.908;37.880;2024-01-30T03:29:42;7.78;;;7.07;;
76589;SDS011;65471;55.908;37.880;2024-01-30T03:32:08;8.13;;;7.03;;
76589;SDS011;65471;55.908;37.880;2024-01-30T03:34:36;8.48;;;7.45;;
76589;SDS011;65471;55.908;37.880;2024-01-30T03:37:03;8.30;;;7.47;;
76589;SDS011;65471;55.908;37.880;2024-01-30T03:39:30;9.32;;;7.13;;
76589;SDS011;65471;55.908;37.880;2024-01-30T03:41:57;8.90;;;6.53;;
76589;SDS011;65471;55.908;37.880;2024-01-30T03:44:24;11.48;;;8.27;;
76589;SDS011;65471;55.908;37.880;2024-01-30T03:46:51;8.02;;;7.22;;
76589;SDS011;65471;55.908;37.880;2024-01-30T03:49:18;10.73;;;7.22;;
76589;SDS011;65471;55.908;37.880;2024-01-30T03:51:45;8.70;;;7.88;;
76589;SDS011;65471;55.908;37.880;2024-01-30T03:54:14;13.82;;;7.60;;
76589;SDS011;65471;55.908;37.880;2024-01-30T03:56:41;8.35;;;7.63;;
76589;SDS011;65471;55.908;37.880;2024-01-30T03:59:08;8.52;;;7.72;;
76589;SDS011;65471;55.908;37.880;2024-01-30T04:01:35;8.38;;;7.57;;
76589;SDS011;65471;55.908;37.880;2024-01-30T04:04:02;8.90;;;7.40;;
76589;SDS011;65471;55.908;37.880;2024-01-30T04:06:29;8.70;;;7.72;;
76589;SDS011;65471;55.908;37.880;2024-01-30T04:08:56;7.80;;;7.10;;
76589;SDS011;65471;55.908;37.880;2024-01-30T04:11:23;9.30;;;7.90;;
76589;SDS011;65471;55.908;37.880;2024-01-30T04:13:50;10.55;;;7.75;;
76589;SDS011;65471;55.908;37.880;2024-01-30T04:16:20;9.65;;;7.60;;
76589;SDS011;65471;55.908;37.880;2024-01-30T04:18:50;9.50;;;7.47;;
76589;SDS011;65471;55.908;37.880;2024-01-30T04:21:18;10.05;;;8.32;;
76589;SDS011;65471;55.908;37.880;2024-01-30T04:23:45;9.68;;;7.78;;
76589;SDS011;65471;55.908;37.880;2024-01-30T04:26:12;11.30;;;7.75;;
76589;SDS011;65471;55.908;37.880;2024-01-30T04:28:41;10.88;;;7.45;;
76589;SDS011;65471;55.908;37.880;2024-01-30T04:31:08;9.18;;;8.25;;
76589;SDS011;65471;55.908;37.880;2024-01-30T04:33:35;16.45;;;8.07;;
76589;SDS011;65471;55.908;37.880;2024-01-30T04:36:02;11.05;;;8.20;;
76589;SDS011;65471;55.908;37.880;2024-01-30T04:38:31;11.95;;;7.93;;
76589;SDS011;65471;55.908;37.880;2024-01-30T04:40:58;9.05;;;8.20;;
76589;SDS011;65471;55.908;37.880;2024-01-30T04:43:25;11.45;;;8.10;;
76589;SDS011;65471;55.908;37.880;2024-01-30T04:45:53;12.65;;;8.18;;
76589;SDS011;65471;55.908;37.880;2024-01-30T04:48:20;16.15;;;8.63;;
76589;SDS011;65471;55.908;37.880;2024-01-30T04:50:47;14.05;;;8.40;;
76589;SDS011;65471;55.908;37.880;2024-01-30T04:53:14;9.82;;;8.55;;
76589;SDS011;65471;55.908;37.880;2024-01-30T04:55:41;16.38;;;8.48;;
76589;SDS011;65471;55.908;37.880;2024-01-30T04:58:08;11.07;;;8.38;;
76589;SDS011;65471;55.908;37.880;2024-01-30T05:00:35;9.85;;;8.23;;
76589;SDS011;65471;55.908;37.880;2024-01-30T05:03:02;9.63;;;8.60;;
76589;SDS011;65471;55.908;37.880;2024-01-30T05:05:29;10.45;;;8.63;;
76589;SDS011;65471;55.908;37.880;2024-01-30T05:07:56;9.02;;;8.15;;
76589;SDS011;65471;55.908;37.880;2024-01-30T05:10:23;10.88;;;8.50;;
76589;SDS011;65471;55.908;37.880;2024-01-30T05:12:50;14.90;;;8.50;;
76589;SDS011;65471;55.908;37.880;2024-01-30T05:15:17;11.10;;;8.50;;
76589;SDS011;65471;55.908;37.880;2024-01-30T05:17:45;15.52;;;9.85;;
76589;SDS011;65471;55.908;37.880;2024-01-30T05:20:12;16.73;;;8.80;;
76589;SDS011;65471;55.908;37.880;2024-01-30T05:22:39;13.13;;;9.30;;
76589;SDS011;65471;55.908;37.880;2024-01-30T05:25:12;11.75;;;8.60;;
76589;SDS011;65471;55.908;37.880;2024-01-30T05:27:39;14.68;;;8.52;;
76589;SDS011;65471;55.908;37.880;2024-01-30T05:30:07;15.05;;;8.85;;
76589;SDS011;65471;55.908;37.880;2024-01-30T05:32:34;15.75;;;8.30;;
76589;SDS011;65471;55.908;37.880;2024-01-30T05:35:01;13.93;;;8.75;;
76589;SDS011;65471;55.908;37.880;2024-01-30T05:37:29;10.77;;;9.17;;
76589;SDS011;65471;55.908;37.880;2024-01-30T05:39:56;16.40;;;9.00;;
76589;SDS011;65471;55.908;37.880;2024-01-30T05:42:25;9.65;;;8.25;;
76589;SDS011;65471;55.908;37.880;2024-01-30T05:44:53;13.93;;;9.13;;
76589;SDS011;65471;55.908;37.880;2024-01-30T05:47:20;17.65;;;9.48;;
76589;SDS011;65471;55.908;37.880;2024-01-30T05:49:47;20.33;;;9.63;;
76589;SDS011;65471;55.908;37.880;2024-01-30T05:52:14;16.10;;;9.65;;
76589;SDS011;65471;55.908;37.880;2024-01-30T05:54:42;17.10;;;9.18;;
76589;SDS011;65471;55.908;37.880;2024-01-30T05:57:09;10.85;;;9.15;;
76589;SDS011;65471;55.908;37.880;2024-01-30T05:59:36;14.30;;;9.88;;
76589;SDS011;65471;55.908;37.880;2024-01-30T06:02:07;14.52;;;9.75;;
76589;SDS011;65471;55.908;37.880;2024-01-30T06:04:34;15.13;;;9.60;;
76589;SDS011;65471;55.908;37.880;2024-01-30T06:07:01;19.55;;;10.27;;
76589;SDS011;65471;55.908;37.880;2024-01-30T06:09:29;14.23;;;9.80;;
76589;SDS011;65471;55.908;37.880;2024-01-30T06:11:56;17.02;;;9.40;;
76589;SDS011;65471;55.908;37.880;2024-01-30T06:14:23;22.70;;;9.55;;
76589;SDS011;65471;55.908;37.880;2024-01-30T06:16:50;15.32;;;10.18;;
76589;SDS011;65471;55.908;37.880;2024-01-30T06:19:17;18.05;;;9.60;;
76589;SDS011;65471;55.908;37.880;2024-01-30T06:21:44;16.58;;;9.00;;
76589;SDS011;65471;55.908;37.880;2024-01-30T06:24:12;16.60;;;9.68;;
76589;SDS011;65471;55.908;37.880;2024-01-30T06:26:39;18.55;;;9.50;;
76589;SDS011;65471;55.908;37.880;2024-01-30T06:29:06;15.10;;;9.57;;
76589;SDS011;65471;55.908;37.880;2024-01-30T06:31:39;15.90;;;10.38;;
76589;SDS011;65471;55.908;37.880;2024-01-30T06:34:08;23.15;;;9.60;;
76589;SDS011;65471;55.908;37.880;2024-01-30T06:36:36;18.85;;;9.65;;
76589;SDS011;65471;55.908;37.880;2024-01-30T06:39:03;14.85;;;9.45;;
76589;SDS011;65471;55.908;37.880;2024-01-30T06:41:30;16.98;;;9.57;;
76589;SDS011;65471;55.908;37.880;2024-01-30T06:43:57;16.40;;;9.80;;
76589;SDS011;65471;55.908;37.880;2024-01-30T06:46:24;20.77;;;9.50;;
76589;SDS011;65471;55.908;37.880;2024-01-30T06:48:51;20.02;;;9.73;;
76589;SDS011;65471;55.908;37.880;2024-01-30T06:51:19;20.88;;;9.88;;
76589;SDS011;65471;55.908;37.880;2024-01-30T06:53:46;22.30;;;10.05;;
76589;SDS011;65471;55.908;37.880;2024-01-30T06:56:13;17.55;;;8.13;;
76589;SDS011;65471;55.908;37.880;2024-01-30T06:58:40;22.58;;;10.38;;
76589;SDS011;65471;55.908;37.880;2024-01-30T07:01:07;17.80;;;9.73;;
76589;SDS011;65471;55.908;37.880;2024-01-30T07:03:34;14.35;;;9.88;;
76589;SDS011;65471;55.908;37.880;2024-01-30T07:06:01;15.32;;;9.48;;
76589;SDS011;65471;55.908;37.880;2024-01-30T07:08:28;18.30;;;9.82;;
76589;SDS011;65471;55.908;37.880;2024-01-30T07:10:55;20.00;;;10.23;;
76589;SDS011;65471;55.908;37.880;2024-01-30T07:13:27;17.35;;;9.32;;
76589;SDS011;65471;55.908;37.880;2024-01-30T07:18:22;26.73;;;9.80;;
76589;SDS011;65471;55.908;37.880;2024-01-30T07:20:49;17.10;;;9.80;;
76589;SDS011;65471;55.908;37.880;2024-01-30T07:23:16;17.33;;;9.80;;
76589;SDS011;65471;55.908;37.880;2024-01-30T07:25:44;14.82;;;8.70;;
76589;SDS011;65471;55.908;37.880;2024-01-30T07:28:14;14.20;;;10.05;;
76589;SDS011;65471;55.908;37.880;2024-01-30T07:30:45;18.65;;;9.77;;
76589;SDS011;65471;55.908;37.880;2024-01-30T07:33:12;18.45;;;10.15;;
76589;SDS011;65471;55.908;37.880;2024-01-30T07:35:40;21.83;;;10.82;;
76589;SDS011;65471;55.908;37.880;2024-01-30T07:38:07;17.02;;;10.32;;
76589;SDS011;65471;55.908;37.880;2024-01-30T07:40:34;22.48;;;10.80;;
76589;SDS011;65471;55.908;37.880;2024-01-30T07:43:01;17.90;;;9.23;;
76589;SDS011;65471;55.908;37.880;2024-01-30T07:45:30;16.33;;;10.95;;
76589;SDS011;65471;55.908;37.880;2024-01-30T07:48:00;15.88;;;9.95;;
76589;SDS011;65471;55.908;37.880;2024-01-30T07:50:27;14.75;;;9.88;;
76589;SDS011;65471;55.908;37.880;2024-01-30T07:52:58;17.08;;;10.13;;
76589;SDS011;65471;55.908;37.880;2024-01-30T07:55:27;19.70;;;10.27;;
76589;SDS011;65471;55.908;37.880;2024-01-30T07:57:55;19.20;;;10.10;;
76589;SDS011;65471;55.908;37.880;2024-01-30T08:00:23;20.85;;;10.27;;
76589;SDS011;65471;55.908;37.880;2024-01-30T08:02:49;16.27;;;10.07;;
76589;SDS011;65471;55.908;37.880;2024-01-30T08:05:16;19.48;;;10.23;;
76589;SDS011;65471;55.908;37.880;2024-01-30T08:07:44;23.15;;;10.95;;
76589;SDS011;65471;55.908;37.880;2024-01-30T08:10:11;20.63;;;10.60;;
76589;SDS011;65471;55.908;37.880;2024-01-30T08:12:39;29.92;;;11.07;;
76589;SDS011;65471;55.908;37.880;2024-01-30T08:15:07;17.85;;;10.55;;
76589;SDS011;65471;55.908;37.880;2024-01-30T08:17:34;17.70;;;10.35;;
76589;SDS011;65471;55.908;37.880;2024-01-30T08:20:01;18.92;;;10.18;;
76589;SDS011;65471;55.908;37.880;2024-01-30T08:22:31;20.48;;;10.55;;
76589;SDS011;65471;55.908;37.880;2024-01-30T08:24:58;24.17;;;11.05;;
76589;SDS011;65471;55.908;37.880;2024-01-30T08:27:25;23.05;;;10.00;;
76589;SDS011;65471;55.908;37.880;2024-01-30T08:29:52;20.67;;;9.85;;
76589;SDS011;65471;55.908;37.880;2024-01-30T08:32:19;16.08;;;10.85;;
76589;SDS011;65471;55.908;37.880;2024-01-30T08:34:46;21.05;;;11.20;;
76589;SDS011;65471;55.908;37.880;2024-01-30T08:37:13;21.23;;;10.82;;
76589;SDS011;65471;55.908;37.880;2024-01-30T08:39:43;18.00;;;10.05;;
76589;SDS011;65471;55.908;37.880;2024-01-30T08:42:10;20.88;;;10.10;;
76589;SDS011;65471;55.908;37.880;2024-01-30T08:44:38;19.63;;;11.35;;
76589;SDS011;65471;55.908;37.880;2024-01-30T08:47:05;17.98;;;11.82;;
76589;SDS011;65471;55.908;37.880;2024-01-30T08:49:32;22.85;;;11.20;;
76589;SDS011;65471;55.908;37.880;2024-01-30T08:51:59;25.50;;;11.45;;
76589;SDS011;65471;55.908;37.880;2024-01-30T08:54:27;24.92;;;10.95;;
76589;SDS011;65471;55.908;37.880;2024-01-30T08:56:54;19.83;;;10.10;;
76589;SDS011;65471;55.908;37.880;2024-01-30T09:01:49;14.65;;;9.77;;
76589;SDS011;65471;55.908;37.880;2024-01-30T09:04:32;15.85;;;9.63;;
76589;SDS011;65471;55.908;37.880;2024-01-30T09:06:59;18.88;;;10.45;;
76589;SDS011;65471;55.908;37.880;2024-01-30T09:09:26;21.92;;;9.90;;
76589;SDS011;65471;55.908;37.880;2024-01-30T09:11:53;14.38;;;10.57;;
76589;SDS011;65471;55.908;37.880;2024-01-30T09:14:20;17.83;;;10.43;;
76589;SDS011;65471;55.908;37.880;2024-01-30T09:16:47;19.13;;;10.77;;
76589;SDS011;65471;55.908;37.880;2024-01-30T09:19:18;14.73;;;9.40;;
76589;SDS011;65471;55.908;37.880;2024-01-30T09:21:45;11.88;;;9.98;;
76589;SDS011;65471;55.908;37.880;2024-01-30T09:24:12;14.98;;;9.90;;
76589;SDS011;65471;55.908;37.880;2024-01-30T09:26:39;17.40;;;11.32;;
76589;SDS011;65471;55.908;37.880;2024-01-30T09:29:06;18.55;;;10.38;;
76589;SDS011;65471;55.908;37.880;2024-01-30T09:31:33;21.90;;;10.27;;
76589;SDS011;65471;55.908;37.880;2024-01-30T09:34:00;24.77;;;11.68;;
76589;SDS011;65471;55.908;37.880;2024-01-30T09:36:28;15.77;;;10.30;;
76589;SDS011;65471;55.908;37.880;2024-01-30T09:38:55;22.48;;;11.13;;
76589;SDS011;65471;55.908;37.880;2024-01-30T09:41:23;27.52;;;11.48;;
76589;SDS011;65471;55.908;37.880;2024-01-30T09:43:51;23.42;;;11.02;;
76589;SDS011;65471;55.908;37.880;2024-01-30T09:46:21;25.60;;;10.45;;
76589;SDS011;65471;55.908;37.880;2024-01-30T09:48:55;21.88;;;11.60;;
76589;SDS011;65471;55.908;37.880;2024-01-30T09:51:24;17.38;;;11.43;;
76589;SDS011;65471;55.908;37.880;2024-01-30T09:53:53;32.10;;;13.80;;
76589;SDS011;65471;55.908;37.880;2024-01-30T09:56:21;26.60;;;13.55;;
76589;SDS011;65471;55.908;37.880;2024-01-30T09:58:49;25.08;;;13.68;;
76589;SDS011;65471;55.908;37.880;2024-01-30T10:01:16;23.42;;;12.55;;
76589;SDS011;65471;55.908;37.880;2024-01-30T10:03:45;21.38;;;13.50;;
76589;SDS011;65471;55.908;37.880;2024-01-30T10:06:13;26.42;;;14.70;;
76589;SDS011;65471;55.908;37.880;2024-01-30T10:08:42;23.67;;;14.45;;
76589;SDS011;65471;55.908;37.880;2024-01-30T10:11:09;34.85;;;16.98;;
76589;SDS011;65471;55.908;37.880;2024-01-30T10:13:36;32.38;;;16.73;;
76589;SDS011;65471;55.908;37.880;2024-01-30T10:16:06;31.77;;;16.00;;
76589;SDS011;65471;55.908;37.880;2024-01-30T10:18:33;26.38;;;15.25;;
76589;SDS011;65471;55.908;37.880;2024-01-30T10:21:00;38.67;;;16.15;;
76589;SDS011;65471;55.908;37.880;2024-01-30T10:23:28;26.27;;;16.10;;
76589;SDS011;65471;55.908;37.880;2024-01-30T10:26:02;29.50;;;15.13;;
76589;SDS011;65471;55.908;37.880;2024-01-30T10:28:30;32.35;;;16.95;;
76589;SDS011;65471;55.908;37.880;2024-01-30T10:30:58;27.02;;;16.00;;
76589;SDS011;65471;55.908;37.880;2024-01-30T10:33:32;28.65;;;16.98;;
76589;SDS011;65471;55.908;37.880;2024-01-30T10:36:03;31.30;;;16.75;;
76589;SDS011;65471;55.908;37.880;2024-01-30T10:38:32;24.50;;;15.38;;
76589;SDS011;65471;55.908;37.880;2024-01-30T10:41:00;22.30;;;13.10;;
76589;SDS011;65471;55.908;37.880;2024-01-30T10:43:39;20.13;;;12.23;;
76589;SDS011;65471;55.908;37.880;2024-01-30T10:46:10;25.42;;;11.57;;
76589;SDS011;65471;55.908;37.880;2024-01-30T10:48:46;18.38;;;11.40;;
76589;SDS011;65471;55.908;37.880;2024-01-30T10:51:20;22.80;;;10.88;;
76589;SDS011;65471;55.908;37.880;2024-01-30T10:53:49;19.75;;;11.20;;
76589;SDS011;65471;55.908;37.880;2024-01-30T10:56:16;21.48;;;11.93;;
76589;SDS011;65471;55.908;37.880;2024-01-30T10:58:43;20.55;;;11.48;;
76589;SDS011;65471;55.908;37.880;2024-01-30T11:01:10;18.45;;;11.93;;
76589;SDS011;65471;55.908;37.880;2024-01-30T11:03:38;24.40;;;11.93;;
76589;SDS011;65471;55.908;37.880;2024-01-30T11:06:10;17.58;;;10.98;;
76589;SDS011;65471;55.908;37.880;2024-01-30T11:08:38;28.02;;;11.68;;
76589;SDS011;65471;55.908;37.880;2024-01-30T11:11:08;25.15;;;12.00;;
76589;SDS011;65471;55.908;37.880;2024-01-30T11:13:36;24.45;;;13.10;;
76589;SDS011;65471;55.908;37.880;2024-01-30T11:16:04;28.48;;;12.90;;
76589;SDS011;65471;55.908;37.880;2024-01-30T11:18:32;18.73;;;11.82;;
76589;SDS011;65471;55.908;37.880;2024-01-30T11:21:04;22.38;;;13.38;;
76589;SDS011;65471;55.908;37.880;2024-01-30T11:23:33;28.05;;;13.98;;
76589;SDS011;65471;55.908;37.880;2024-01-30T11:26:00;31.13;;;14.57;;
76589;SDS011;65471;55.908;37.880;2024-01-30T11:28:31;31.58;;;14.70;;
76589;SDS011;65471;55.908;37.880;2024-01-30T11:31:05;31.60;;;15.70;;
76589;SDS011;65471;55.908;37.880;2024-01-30T11:33:34;26.02;;;14.65;;
76589;SDS011;65471;55.908;37.880;2024-01-30T11:36:02;32.95;;;16.73;;
76589;SDS011;65471;55.908;37.880;2024-01-30T11:38:29;33.28;;;15.90;;
76589;SDS011;65471;55.908;37.880;2024-01-30T11:40:56;27.15;;;15.40;;
76589;SDS011;65471;55.908;37.880;2024-01-30T11:43:24;33.65;;;15.48;;
76589;SDS011;65471;55.908;37.880;2024-01-30T11:45:51;29.50;;;15.27;;
76589;SDS011;65471;55.908;37.880;2024-01-30T11:48:19;29.10;;;13.82;;
76589;SDS011;65471;55.908;37.880;2024-01-30T11:50:46;31.58;;;12.85;;
76589;SDS011;65471;55.908;37.880;2024-01-30T11:53:13;23.52;;;13.48;;
76589;SDS011;65471;55.908;37.880;2024-01-30T11:55:40;25.45;;;12.68;;
76589;SDS011;65471;55.908;37.880;2024-01-30T11:58:08;24.02;;;12.98;;
76589;SDS011;65471;55.908;37.880;2024-01-30T12:00:35;27.65;;;13.13;;
76589;SDS011;65471;55.908;37.880;2024-01-30T12:03:02;23.30;;;12.00;;
76589;SDS011;65471;55.908;37.880;2024-01-30T12:05:31;21.20;;;12.75;;
76589;SDS011;65471;55.908;37.880;2024-01-30T12:07:58;27.98;;;13.32;;
76589;SDS011;65471;55.908;37.880;2024-01-30T12:10:27;20.35;;;12.35;;
76589;SDS011;65471;55.908;37.880;2024-01-30T12:12:55;24.63;;;11.30;;
76589;SDS011;65471;55.908;37.880;2024-01-30T12:15:24;30.52;;;14.30;;
76589;SDS011;65471;55.908;37.880;2024-01-30T12:17:51;24.33;;;13.27;;
76589;SDS011;65471;55.908;37.880;2024-01-30T12:20:18;29.17;;;14.00;;
76589;SDS011;65471;55.908;37.880;2024-01-30T12:22:49;24.10;;;13.18;;
76589;SDS011;65471;55.908;37.880;2024-01-30T12:25:17;29.60;;;13.05;;
76589;SDS011;65471;55.908;37.880;2024-01-30T12:27:46;25.73;;;13.30;;
76589;SDS011;65471;55.908;37.880;2024-01-30T12:30:19;24.10;;;13.50;;
76589;SDS011;65471;55.908;37.880;2024-01-30T12:32:49;27.38;;;12.88;;
76589;SDS011;65471;55.908;37.880;2024-01-30T12:35:18;24.40;;;14.48;;
76589;SDS011;65471;55.908;37.880;2024-01-30T12:40:14;34.70;;;13.60;;
76589;SDS011;65471;55.908;37.880;2024-01-30T12:42:42;33.80;;;15.13;;
76589;SDS011;65471;55.908;37.880;2024-01-30T12:45:13;135.15;;;52.03;;
76589;SDS011;65471;55.908;37.880;2024-01-30T12:47:41;22.05;;;14.00;;
76589;SDS011;65471;55.908;37.880;2024-01-30T12:50:09;68.30;;;30.10;;
76589;SDS011;65471;55.908;37.880;2024-01-30T12:52:36;42.70;;;16.13;;
76589;SDS011;65471;55.908;37.880;2024-01-30T12:55:04;27.52;;;14.63;;
76589;SDS011;65471;55.908;37.880;2024-01-30T12:57:31;31.65;;;13.38;;
76589;SDS011;65471;55.908;37.880;2024-01-30T12:59:58;19.17;;;12.25;;
76589;SDS011;65471;55.908;37.880;2024-01-30T13:02:25;22.83;;;11.77;;
76589;SDS011;65471;55.908;37.880;2024-01-30T13:04:56;19.17;;;11.63;;
76589;SDS011;65471;55.908;37.880;2024-01-30T13:07:24;27.38;;;12.15;;
76589;SDS011;65471;55.908;37.880;2024-01-30T13:09:51;25.25;;;11.57;;
76589;SDS011;65471;55.908;37.880;2024-01-30T13:12:18;25.15;;;13.73;;
76589;SDS011;65471;55.908;37.880;2024-01-30T13:14:45;25.65;;;12.35;;
76589;SDS011;65471;55.908;37.880;2024-01-30T13:17:12;22.02;;;12.23;;
76589;SDS011;65471;55.908;37.880;2024-01-30T13:19:39;29.05;;;14.60;;
76589;SDS011;65471;55.908;37.880;2024-01-30T13:22:06;28.20;;;13.63;;
76589;SDS011;65471;55.908;37.880;2024-01-30T13:24:33;21.60;;;12.93;;
76589;SDS011;65471;55.908;37.880;2024-01-30T13:27:00;31.88;;;16.88;;
76589;SDS011;65471;55.908;37.880;2024-01-30T13:29:27;22.52;;;12.43;;
76589;SDS011;65471;55.908;37.880;2024-01-30T13:31:54;23.95;;;12.90;;
76589;SDS011;65471;55.908;37.880;2024-01-30T13:34:21;27.75;;;12.57;;
76589;SDS011;65471;55.908;37.880;2024-01-30T13:36:49;24.90;;;12.55;;
76589;SDS011;65471;55.908;37.880;2024-01-30T13:39:16;27.45;;;12.98;;
76589;SDS011;65471;55.908;37.880;2024-01-30T13:41:47;22.33;;;11.95;;
76589;SDS011;65471;55.908;37.880;2024-01-30T13:44:15;21.08;;;12.73;;
76589;SDS011;65471;55.908;37.880;2024-01-30T13:46:43;21.45;;;13.23;;
76589;SDS011;65471;55.908;37.880;2024-01-30T13:49:11;26.65;;;13.40;;
76589;SDS011;65471;55.908;37.880;2024-01-30T13:51:39;29.00;;;12.88;;
76589;SDS011;65471;55.908;37.880;2024-01-30T13:54:05;29.95;;;13.38;;
76589;SDS011;65471;55.908;37.880;2024-01-30T13:56:33;25.42;;;13.48;;
76589;SDS011;65471;55.908;37.880;2024-01-30T13:59:00;26.15;;;13.07;;
76589;SDS011;65471;55.908;37.880;2024-01-30T14:01:28;31.58;;;14.07;;
76589;SDS011;65471;55.908;37.880;2024-01-30T14:03:55;25.60;;;14.50;;
76589;SDS011;65471;55.908;37.880;2024-01-30T14:06:22;25.30;;;12.95;;
76589;SDS011;65471;55.908;37.880;2024-01-30T14:08:49;36.92;;;13.25;;
76589;SDS011;65471;55.908;37.880;2024-01-30T14:11:26;23.55;;;12.40;;
76589;SDS011;65471;55.908;37.880;2024-01-30T14:13:54;26.05;;;12.88;;
76589;SDS011;65471;55.908;37.880;2024-01-30T14:16:21;23.33;;;12.90;;
76589;SDS011;65471;55.908;37.880;2024-01-30T14:18:48;34.63;;;13.95;;
76589;SDS011;65471;55.908;37.880;2024-01-30T14:21:15;34.58;;;14.73;;
76589;SDS011;65471;55.908;37.880;2024-01-30T14:23:45;26.20;;;13.23;;
76589;SDS011;65471;55.908;37.880;2024-01-30T14:26:13;26.00;;;13.63;;
76589;SDS011;65471;55.908;37.880;2024-01-30T14:28:41;25.25;;;12.77;;
76589;SDS011;65471;55.908;37.880;2024-01-30T14:31:10;24.85;;;12.07;;